sensor_id;sensor_type;location;lat;lon;timestamp;P1;durP1;ratioP1;P2;durP2;ratioP2
79570;SDS011;69034;49.444;7.758;2023-06-24T00:01:03;5.03;;;2.20;;
79570;SDS011;69034;49.444;7.758;2023-06-24T00:05:04;3.85;;;2.00;;
79570;SDS011;69034;49.444;7.758;2023-06-24T00:09:06;3.92;;;1.73;;
79570;SDS011;69034;49.444;7.758;2023-06-24T00:13:07;3.38;;;1.70;;
79570;SDS011;69034;49.444;7.758;2023-06-24T00:17:08;5.20;;;1.98;;
79570;SDS011;69034;49.444;7.758;2023-06-24T00:21:09;4.03;;;1.80;;
79570;SDS011;69034;49.444;7.758;2023-06-24T00:25:10;5.47;;;2.30;;
79570;SDS011;69034;49.444;7.758;2023-06-24T00:29:11;4.55;;;2.08;;
79570;SDS011;69034;49.444;7.758;2023-06-24T00:33:12;4.63;;;1.92;;
79570;SDS011;69034;49.444;7.758;2023-06-24T00:37:14;4.78;;;2.10;;
79570;SDS011;69034;49.444;7.758;2023-06-24T00:41:16;4.57;;;2.08;;
79570;SDS011;69034;49.444;7.758;2023-06-24T00:45:18;3.83;;;2.00;;
79570;SDS011;69034;49.444;7.758;2023-06-24T00:49:20;4.13;;;1.90;;
79570;SDS011;69034;49.444;7.758;2023-06-24T00:53:20;4.00;;;1.95;;
79570;SDS011;69034;49.444;7.758;2023-06-24T00:57:24;4.75;;;1.80;;
79570;SDS011;69034;49.444;7.758;2023-06-24T01:01:25;4.50;;;1.85;;
79570;SDS011;69034;49.444;7.758;2023-06-24T01:05:28;5.22;;;1.83;;
79570;SDS011;69034;49.444;7.758;2023-06-24T01:09:35;4.38;;;1.98;;
79570;SDS011;69034;49.444;7.758;2023-06-24T01:13:36;3.80;;;1.83;;
79570;SDS011;69034;49.444;7.758;2023-06-24T01:17:59;4.75;;;1.73;;
79570;SDS011;69034;49.444;7.758;2023-06-24T01:35:25;4.78;;;2.20;;
79570;SDS011;69034;49.444;7.758;2023-06-24T01:39:31;4.35;;;2.30;;
79570;SDS011;69034;49.444;7.758;2023-06-24T01:43:36;4.80;;;2.25;;
79570;SDS011;69034;49.444;7.758;2023-06-24T01:47:40;4.68;;;1.95;;
79570;SDS011;69034;49.444;7.758;2023-06-24T01:51:45;4.50;;;2.42;;
79570;SDS011;69034;49.444;7.758;2023-06-24T01:55:47;4.28;;;2.10;;
79570;SDS011;69034;49.444;7.758;2023-06-24T01:59:52;6.60;;;2.03;;
79570;SDS011;69034;49.444;7.758;2023-06-24T02:03:55;4.55;;;2.08;;
79570;SDS011;69034;49.444;7.758;2023-06-24T02:07:57;5.20;;;2.03;;
79570;SDS011;69034;49.444;7.758;2023-06-24T02:11:59;5.05;;;1.90;;
79570;SDS011;69034;49.444;7.758;2023-06-24T02:16:03;5.00;;;1.77;;
79570;SDS011;69034;49.444;7.758;2023-06-24T02:20:08;3.47;;;1.77;;
79570;SDS011;69034;49.444;7.758;2023-06-24T02:24:10;4.97;;;1.88;;
79570;SDS011;69034;49.444;7.758;2023-06-24T02:28:12;3.45;;;1.75;;
79570;SDS011;69034;49.444;7.758;2023-06-24T02:32:14;6.13;;;2.10;;
79570;SDS011;69034;49.444;7.758;2023-06-24T02:36:14;4.10;;;2.13;;
79570;SDS011;69034;49.444;7.758;2023-06-24T02:40:16;5.07;;;1.77;;
79570;SDS011;69034;49.444;7.758;2023-06-24T02:44:17;6.28;;;2.28;;
79570;SDS011;69034;49.444;7.758;2023-06-24T02:48:17;5.60;;;2.05;;
79570;SDS011;69034;49.444;7.758;2023-06-24T02:52:20;3.70;;;1.85;;
79570;SDS011;69034;49.444;7.758;2023-06-24T02:56:21;4.78;;;2.08;;
79570;SDS011;69034;49.444;7.758;2023-06-24T03:00:22;3.88;;;1.92;;
79570;SDS011;69034;49.444;7.758;2023-06-24T03:04:23;4.15;;;2.10;;
79570;SDS011;69034;49.444;7.758;2023-06-24T03:08:24;3.78;;;1.63;;
79570;SDS011;69034;49.444;7.758;2023-06-24T03:12:26;4.57;;;1.90;;
79570;SDS011;69034;49.444;7.758;2023-06-24T03:16:27;5.25;;;2.20;;
79570;SDS011;69034;49.444;7.758;2023-06-24T03:20:28;4.85;;;1.98;;
79570;SDS011;69034;49.444;7.758;2023-06-24T03:24:29;5.18;;;2.25;;
79570;SDS011;69034;49.444;7.758;2023-06-24T03:28:30;4.60;;;2.30;;
79570;SDS011;69034;49.444;7.758;2023-06-24T03:32:30;5.05;;;2.03;;
79570;SDS011;69034;49.444;7.758;2023-06-24T03:36:31;4.53;;;2.03;;
79570;SDS011;69034;49.444;7.758;2023-06-24T03:40:34;4.68;;;1.98;;
79570;SDS011;69034;49.444;7.758;2023-06-24T03:44:35;5.13;;;1.85;;
79570;SDS011;69034;49.444;7.758;2023-06-24T03:48:36;6.32;;;2.30;;
79570;SDS011;69034;49.444;7.758;2023-06-24T03:52:37;3.50;;;1.88;;
79570;SDS011;69034;49.444;7.758;2023-06-24T03:56:38;4.82;;;2.22;;
79570;SDS011;69034;49.444;7.758;2023-06-24T04:00:38;4.05;;;1.98;;
79570;SDS011;69034;49.444;7.758;2023-06-24T04:04:40;4.43;;;1.95;;
79570;SDS011;69034;49.444;7.758;2023-06-24T04:08:41;3.88;;;1.88;;
79570;SDS011;69034;49.444;7.758;2023-06-24T04:12:43;4.38;;;2.03;;
79570;SDS011;69034;49.444;7.758;2023-06-24T04:16:44;4.72;;;2.33;;
79570;SDS011;69034;49.444;7.758;2023-06-24T04:20:44;5.22;;;2.75;;
79570;SDS011;69034;49.444;7.758;2023-06-24T04:24:46;4.20;;;2.20;;
79570;SDS011;69034;49.444;7.758;2023-06-24T04:28:47;4.63;;;2.20;;
79570;SDS011;69034;49.444;7.758;2023-06-24T04:32:48;4.25;;;2.15;;
79570;SDS011;69034;49.444;7.758;2023-06-24T04:36:48;5.63;;;2.50;;
79570;SDS011;69034;49.444;7.758;2023-06-24T04:40:49;4.22;;;1.83;;
79570;SDS011;69034;49.444;7.758;2023-06-24T04:44:49;3.90;;;2.00;;
79570;SDS011;69034;49.444;7.758;2023-06-24T04:48:53;3.40;;;1.77;;
79570;SDS011;69034;49.444;7.758;2023-06-24T04:52:55;4.00;;;1.90;;
79570;SDS011;69034;49.444;7.758;2023-06-24T04:56:56;4.13;;;1.98;;
79570;SDS011;69034;49.444;7.758;2023-06-24T05:00:57;7.97;;;2.67;;
79570;SDS011;69034;49.444;7.758;2023-06-24T05:04:58;4.78;;;2.13;;
79570;SDS011;69034;49.444;7.758;2023-06-24T05:08:59;7.90;;;2.50;;
79570;SDS011;69034;49.444;7.758;2023-06-24T05:13:00;5.05;;;2.30;;
79570;SDS011;69034;49.444;7.758;2023-06-24T05:17:01;8.35;;;2.75;;
79570;SDS011;69034;49.444;7.758;2023-06-24T05:21:05;5.28;;;2.33;;
79570;SDS011;69034;49.444;7.758;2023-06-24T05:25:05;5.05;;;2.25;;
79570;SDS011;69034;49.444;7.758;2023-06-24T05:29:06;5.78;;;2.25;;
79570;SDS011;69034;49.444;7.758;2023-06-24T05:33:07;6.32;;;2.83;;
79570;SDS011;69034;49.444;7.758;2023-06-24T05:37:08;5.13;;;2.25;;
79570;SDS011;69034;49.444;7.758;2023-06-24T05:41:08;5.07;;;2.47;;
79570;SDS011;69034;49.444;7.758;2023-06-24T05:45:09;4.47;;;2.60;;
79570;SDS011;69034;49.444;7.758;2023-06-24T05:49:10;8.07;;;2.92;;
79570;SDS011;69034;49.444;7.758;2023-06-24T05:53:11;5.18;;;2.75;;
79570;SDS011;69034;49.444;7.758;2023-06-24T05:57:11;5.95;;;2.75;;
79570;SDS011;69034;49.444;7.758;2023-06-24T06:01:12;7.57;;;2.75;;
79570;SDS011;69034;49.444;7.758;2023-06-24T06:05:13;4.95;;;2.67;;
79570;SDS011;69034;49.444;7.758;2023-06-24T06:09:13;5.75;;;2.42;;
79570;SDS011;69034;49.444;7.758;2023-06-24T06:13:14;6.95;;;2.53;;
79570;SDS011;69034;49.444;7.758;2023-06-24T06:17:14;5.60;;;2.63;;
79570;SDS011;69034;49.444;7.758;2023-06-24T06:21:15;5.57;;;2.65;;
79570;SDS011;69034;49.444;7.758;2023-06-24T06:25:16;8.98;;;2.47;;
79570;SDS011;69034;49.444;7.758;2023-06-24T06:29:16;6.75;;;2.78;;
79570;SDS011;69034;49.444;7.758;2023-06-24T06:33:17;4.80;;;2.55;;
79570;SDS011;69034;49.444;7.758;2023-06-24T06:37:17;4.60;;;2.38;;
79570;SDS011;69034;49.444;7.758;2023-06-24T06:41:18;4.20;;;2.20;;
79570;SDS011;69034;49.444;7.758;2023-06-24T06:45:24;6.30;;;3.10;;
79570;SDS011;69034;49.444;7.758;2023-06-24T06:49:24;5.45;;;3.08;;
79570;SDS011;69034;49.444;7.758;2023-06-24T06:53:25;5.40;;;2.92;;
79570;SDS011;69034;49.444;7.758;2023-06-24T06:57:26;6.20;;;2.80;;
79570;SDS011;69034;49.444;7.758;2023-06-24T07:01:26;5.43;;;2.70;;
79570;SDS011;69034;49.444;7.758;2023-06-24T07:05:27;4.38;;;2.20;;
79570;SDS011;69034;49.444;7.758;2023-06-24T07:09:28;6.55;;;2.67;;
79570;SDS011;69034;49.444;7.758;2023-06-24T07:13:28;4.63;;;2.33;;
79570;SDS011;69034;49.444;7.758;2023-06-24T07:17:29;5.43;;;2.55;;
79570;SDS011;69034;49.444;7.758;2023-06-24T07:21:29;5.70;;;2.60;;
79570;SDS011;69034;49.444;7.758;2023-06-24T07:25:30;4.18;;;2.13;;
79570;SDS011;69034;49.444;7.758;2023-06-24T07:29:31;8.20;;;2.63;;
79570;SDS011;69034;49.444;7.758;2023-06-24T07:33:31;6.20;;;2.45;;
79570;SDS011;69034;49.444;7.758;2023-06-24T07:37:33;5.57;;;2.80;;
79570;SDS011;69034;49.444;7.758;2023-06-24T07:41:34;5.35;;;2.53;;
79570;SDS011;69034;49.444;7.758;2023-06-24T07:45:35;4.80;;;2.35;;
79570;SDS011;69034;49.444;7.758;2023-06-24T07:49:36;6.07;;;2.83;;
79570;SDS011;69034;49.444;7.758;2023-06-24T07:53:37;5.40;;;3.08;;
79570;SDS011;69034;49.444;7.758;2023-06-24T07:57:38;6.32;;;2.70;;
79570;SDS011;69034;49.444;7.758;2023-06-24T08:01:39;6.82;;;2.70;;
79570;SDS011;69034;49.444;7.758;2023-06-24T08:05:39;5.50;;;2.58;;
79570;SDS011;69034;49.444;7.758;2023-06-24T08:09:40;6.68;;;3.38;;
79570;SDS011;69034;49.444;7.758;2023-06-24T08:13:41;4.80;;;2.60;;
79570;SDS011;69034;49.444;7.758;2023-06-24T08:17:41;4.07;;;2.38;;
79570;SDS011;69034;49.444;7.758;2023-06-24T08:21:42;5.28;;;2.63;;
79570;SDS011;69034;49.444;7.758;2023-06-24T08:25:43;6.22;;;2.90;;
79570;SDS011;69034;49.444;7.758;2023-06-24T08:29:44;6.10;;;2.55;;
79570;SDS011;69034;49.444;7.758;2023-06-24T08:33:46;7.05;;;2.80;;
79570;SDS011;69034;49.444;7.758;2023-06-24T08:37:46;5.45;;;2.90;;
79570;SDS011;69034;49.444;7.758;2023-06-24T08:41:47;4.05;;;2.22;;
79570;SDS011;69034;49.444;7.758;2023-06-24T08:45:47;5.20;;;2.55;;
79570;SDS011;69034;49.444;7.758;2023-06-24T08:49:48;4.82;;;2.40;;
79570;SDS011;69034;49.444;7.758;2023-06-24T08:53:56;6.00;;;2.33;;
79570;SDS011;69034;49.444;7.758;2023-06-24T08:57:58;5.00;;;2.47;;
79570;SDS011;69034;49.444;7.758;2023-06-24T09:01:59;5.43;;;2.40;;
79570;SDS011;69034;49.444;7.758;2023-06-24T09:06:00;5.80;;;2.60;;
79570;SDS011;69034;49.444;7.758;2023-06-24T09:10:00;4.65;;;2.33;;
79570;SDS011;69034;49.444;7.758;2023-06-24T09:14:01;7.28;;;2.90;;
79570;SDS011;69034;49.444;7.758;2023-06-24T09:18:02;5.57;;;2.75;;
79570;SDS011;69034;49.444;7.758;2023-06-24T09:22:05;4.88;;;2.80;;
79570;SDS011;69034;49.444;7.758;2023-06-24T09:26:09;6.18;;;2.55;;
79570;SDS011;69034;49.444;7.758;2023-06-24T09:30:18;4.10;;;2.33;;
79570;SDS011;69034;49.444;7.758;2023-06-24T09:34:25;4.82;;;2.47;;
79570;SDS011;69034;49.444;7.758;2023-06-24T09:38:31;5.30;;;3.15;;
79570;SDS011;69034;49.444;7.758;2023-06-24T09:42:33;5.72;;;2.60;;
79570;SDS011;69034;49.444;7.758;2023-06-24T09:46:34;4.22;;;2.15;;
79570;SDS011;69034;49.444;7.758;2023-06-24T09:50:37;4.97;;;2.28;;
79570;SDS011;69034;49.444;7.758;2023-06-24T09:54:39;8.68;;;2.80;;
79570;SDS011;69034;49.444;7.758;2023-06-24T09:58:40;5.22;;;2.72;;
79570;SDS011;69034;49.444;7.758;2023-06-24T10:02:45;4.65;;;2.42;;
79570;SDS011;69034;49.444;7.758;2023-06-24T10:06:46;4.57;;;2.60;;
79570;SDS011;69034;49.444;7.758;2023-06-24T10:10:48;4.43;;;2.70;;
79570;SDS011;69034;49.444;7.758;2023-06-24T10:14:49;4.68;;;2.25;;
79570;SDS011;69034;49.444;7.758;2023-06-24T10:18:49;4.25;;;2.63;;
79570;SDS011;69034;49.444;7.758;2023-06-24T10:22:50;4.35;;;2.50;;
79570;SDS011;69034;49.444;7.758;2023-06-24T10:26:51;4.15;;;2.28;;
79570;SDS011;69034;49.444;7.758;2023-06-24T10:30:55;5.18;;;2.35;;
79570;SDS011;69034;49.444;7.758;2023-06-24T10:34:58;3.60;;;2.47;;
79570;SDS011;69034;49.444;7.758;2023-06-24T10:39:02;8.98;;;2.53;;
79570;SDS011;69034;49.444;7.758;2023-06-24T10:43:05;4.40;;;2.40;;
79570;SDS011;69034;49.444;7.758;2023-06-24T10:47:23;5.32;;;2.85;;
79570;SDS011;69034;49.444;7.758;2023-06-24T10:51:29;4.85;;;2.70;;
79570;SDS011;69034;49.444;7.758;2023-06-24T10:55:30;5.05;;;2.90;;
79570;SDS011;69034;49.444;7.758;2023-06-24T10:59:34;4.68;;;2.70;;
79570;SDS011;69034;49.444;7.758;2023-06-24T11:03:35;4.80;;;3.08;;
79570;SDS011;69034;49.444;7.758;2023-06-24T11:07:39;4.80;;;3.08;;
79570;SDS011;69034;49.444;7.758;2023-06-24T11:11:40;3.97;;;2.67;;
79570;SDS011;69034;49.444;7.758;2023-06-24T11:15:41;6.43;;;2.97;;
79570;SDS011;69034;49.444;7.758;2023-06-24T11:19:42;4.72;;;2.95;;
79570;SDS011;69034;49.444;7.758;2023-06-24T11:23:43;4.43;;;2.60;;
79570;SDS011;69034;49.444;7.758;2023-06-24T11:27:44;4.43;;;3.17;;
79570;SDS011;69034;49.444;7.758;2023-06-24T11:31:45;4.43;;;2.92;;
79570;SDS011;69034;49.444;7.758;2023-06-24T11:35:46;5.53;;;2.63;;
79570;SDS011;69034;49.444;7.758;2023-06-24T11:39:59;4.35;;;2.67;;
79570;SDS011;69034;49.444;7.758;2023-06-24T11:44:05;5.72;;;3.25;;
79570;SDS011;69034;49.444;7.758;2023-06-24T11:48:06;6.30;;;3.55;;
79570;SDS011;69034;49.444;7.758;2023-06-24T11:52:08;5.15;;;3.08;;
79570;SDS011;69034;49.444;7.758;2023-06-24T11:56:15;4.82;;;3.13;;
79570;SDS011;69034;49.444;7.758;2023-06-24T12:00:16;4.63;;;2.85;;
79570;SDS011;69034;49.444;7.758;2023-06-24T12:04:30;4.07;;;2.63;;
79570;SDS011;69034;49.444;7.758;2023-06-24T12:08:31;5.18;;;2.50;;
79570;SDS011;69034;49.444;7.758;2023-06-24T12:12:32;4.50;;;2.83;;
79570;SDS011;69034;49.444;7.758;2023-06-24T12:16:33;4.82;;;3.15;;
79570;SDS011;69034;49.444;7.758;2023-06-24T12:20:36;4.25;;;2.80;;
79570;SDS011;69034;49.444;7.758;2023-06-24T12:24:37;4.70;;;2.17;;
79570;SDS011;69034;49.444;7.758;2023-06-24T12:28:38;4.25;;;2.30;;
79570;SDS011;69034;49.444;7.758;2023-06-24T12:32:39;4.97;;;2.72;;
79570;SDS011;69034;49.444;7.758;2023-06-24T12:36:40;4.97;;;3.00;;
79570;SDS011;69034;49.444;7.758;2023-06-24T12:40:40;4.68;;;2.70;;
79570;SDS011;69034;49.444;7.758;2023-06-24T12:44:41;5.47;;;3.08;;
79570;SDS011;69034;49.444;7.758;2023-06-24T12:48:43;4.20;;;2.58;;
79570;SDS011;69034;49.444;7.758;2023-06-24T12:52:44;7.93;;;3.25;;
79570;SDS011;69034;49.444;7.758;2023-06-24T12:56:45;5.32;;;3.08;;
79570;SDS011;69034;49.444;7.758;2023-06-24T13:00:46;5.20;;;3.25;;
79570;SDS011;69034;49.444;7.758;2023-06-24T13:04:48;5.05;;;2.85;;
79570;SDS011;69034;49.444;7.758;2023-06-24T13:08:52;6.00;;;3.00;;
79570;SDS011;69034;49.444;7.758;2023-06-24T13:12:52;5.43;;;3.40;;
79570;SDS011;69034;49.444;7.758;2023-06-24T13:16:56;4.55;;;3.05;;
79570;SDS011;69034;49.444;7.758;2023-06-24T13:20:57;5.47;;;3.13;;
79570;SDS011;69034;49.444;7.758;2023-06-24T13:24:57;4.13;;;2.80;;
79570;SDS011;69034;49.444;7.758;2023-06-24T13:28:58;4.50;;;2.70;;
79570;SDS011;69034;49.444;7.758;2023-06-24T13:32:59;4.32;;;3.08;;
79570;SDS011;69034;49.444;7.758;2023-06-24T13:36:59;4.82;;;2.67;;
79570;SDS011;69034;49.444;7.758;2023-06-24T13:41:00;4.45;;;2.97;;
79570;SDS011;69034;49.444;7.758;2023-06-24T13:45:01;5.57;;;2.78;;
79570;SDS011;69034;49.444;7.758;2023-06-24T13:49:02;4.38;;;2.80;;
79570;SDS011;69034;49.444;7.758;2023-06-24T13:53:03;4.78;;;2.92;;
79570;SDS011;69034;49.444;7.758;2023-06-24T13:57:04;4.63;;;2.58;;
79570;SDS011;69034;49.444;7.758;2023-06-24T14:01:04;6.32;;;2.97;;
79570;SDS011;69034;49.444;7.758;2023-06-24T14:05:05;4.35;;;2.90;;
79570;SDS011;69034;49.444;7.758;2023-06-24T14:09:06;5.03;;;2.70;;
79570;SDS011;69034;49.444;7.758;2023-06-24T14:13:09;5.72;;;3.47;;
79570;SDS011;69034;49.444;7.758;2023-06-24T14:17:09;5.05;;;3.13;;
79570;SDS011;69034;49.444;7.758;2023-06-24T14:21:11;4.70;;;2.53;;
79570;SDS011;69034;49.444;7.758;2023-06-24T14:25:12;6.65;;;3.10;;
79570;SDS011;69034;49.444;7.758;2023-06-24T14:29:13;6.05;;;2.78;;
79570;SDS011;69034;49.444;7.758;2023-06-24T14:33:13;3.58;;;2.42;;
79570;SDS011;69034;49.444;7.758;2023-06-24T14:37:14;4.13;;;2.63;;
79570;SDS011;69034;49.444;7.758;2023-06-24T14:41:15;4.45;;;2.58;;
79570;SDS011;69034;49.444;7.758;2023-06-24T14:45:16;4.20;;;2.80;;
79570;SDS011;69034;49.444;7.758;2023-06-24T14:49:16;4.40;;;2.75;;
79570;SDS011;69034;49.444;7.758;2023-06-24T14:53:17;4.10;;;2.60;;
79570;SDS011;69034;49.444;7.758;2023-06-24T14:57:18;6.40;;;2.75;;
79570;SDS011;69034;49.444;7.758;2023-06-24T15:01:18;5.10;;;2.97;;
79570;SDS011;69034;49.444;7.758;2023-06-24T15:05:19;4.65;;;3.20;;
79570;SDS011;69034;49.444;7.758;2023-06-24T15:09:21;3.88;;;2.28;;
79570;SDS011;69034;49.444;7.758;2023-06-24T15:13:23;4.60;;;2.75;;
79570;SDS011;69034;49.444;7.758;2023-06-24T15:17:23;8.90;;;3.63;;
79570;SDS011;69034;49.444;7.758;2023-06-24T15:21:24;4.90;;;2.53;;
79570;SDS011;69034;49.444;7.758;2023-06-24T15:25:26;4.32;;;2.90;;
79570;SDS011;69034;49.444;7.758;2023-06-24T15:29:27;4.72;;;2.70;;
79570;SDS011;69034;49.444;7.758;2023-06-24T15:33:28;4.05;;;2.65;;
79570;SDS011;69034;49.444;7.758;2023-06-24T15:37:28;6.38;;;3.00;;
79570;SDS011;69034;49.444;7.758;2023-06-24T15:41:30;4.45;;;2.70;;
79570;SDS011;69034;49.444;7.758;2023-06-24T15:45:30;4.85;;;2.88;;
79570;SDS011;69034;49.444;7.758;2023-06-24T15:49:32;4.43;;;2.95;;
79570;SDS011;69034;49.444;7.758;2023-06-24T15:53:34;4.00;;;2.58;;
79570;SDS011;69034;49.444;7.758;2023-06-24T15:57:35;5.40;;;2.80;;
79570;SDS011;69034;49.444;7.758;2023-06-24T16:01:36;3.88;;;2.53;;
79570;SDS011;69034;49.444;7.758;2023-06-24T16:05:36;4.13;;;2.53;;
79570;SDS011;69034;49.444;7.758;2023-06-24T16:09:37;6.93;;;2.63;;
79570;SDS011;69034;49.444;7.758;2023-06-24T16:13:39;4.65;;;2.72;;
79570;SDS011;69034;49.444;7.758;2023-06-24T16:17:40;5.47;;;3.00;;
79570;SDS011;69034;49.444;7.758;2023-06-24T16:21:40;4.25;;;2.70;;
79570;SDS011;69034;49.444;7.758;2023-06-24T16:25:41;4.03;;;2.38;;
79570;SDS011;69034;49.444;7.758;2023-06-24T16:29:41;4.78;;;2.85;;
79570;SDS011;69034;49.444;7.758;2023-06-24T16:33:42;6.03;;;2.97;;
79570;SDS011;69034;49.444;7.758;2023-06-24T16:37:43;4.22;;;2.90;;
79570;SDS011;69034;49.444;7.758;2023-06-24T16:41:44;7.40;;;2.92;;
79570;SDS011;69034;49.444;7.758;2023-06-24T16:45:44;6.05;;;3.10;;
79570;SDS011;69034;49.444;7.758;2023-06-24T16:49:45;4.10;;;2.50;;
79570;SDS011;69034;49.444;7.758;2023-06-24T16:53:49;5.28;;;3.05;;
79570;SDS011;69034;49.444;7.758;2023-06-24T16:57:51;4.00;;;2.35;;
79570;SDS011;69034;49.444;7.758;2023-06-24T17:01:52;6.25;;;4.45;;
79570;SDS011;69034;49.444;7.758;2023-06-24T17:05:53;5.32;;;3.10;;
79570;SDS011;69034;49.444;7.758;2023-06-24T17:09:54;5.10;;;2.85;;
79570;SDS011;69034;49.444;7.758;2023-06-24T17:13:55;4.53;;;2.70;;
79570;SDS011;69034;49.444;7.758;2023-06-24T17:17:56;5.15;;;2.70;;
79570;SDS011;69034;49.444;7.758;2023-06-24T17:21:56;5.10;;;3.20;;
79570;SDS011;69034;49.444;7.758;2023-06-24T17:25:57;6.55;;;3.47;;
79570;SDS011;69034;49.444;7.758;2023-06-24T17:29:58;4.25;;;2.80;;
79570;SDS011;69034;49.444;7.758;2023-06-24T17:34:00;5.57;;;3.20;;
79570;SDS011;69034;49.444;7.758;2023-06-24T17:38:02;4.45;;;2.60;;
79570;SDS011;69034;49.444;7.758;2023-06-24T17:42:03;4.53;;;2.92;;
79570;SDS011;69034;49.444;7.758;2023-06-24T17:46:06;5.32;;;2.90;;
79570;SDS011;69034;49.444;7.758;2023-06-24T17:50:06;6.07;;;3.20;;
79570;SDS011;69034;49.444;7.758;2023-06-24T17:54:07;10.05;;;3.10;;
79570;SDS011;69034;49.444;7.758;2023-06-24T17:58:08;5.40;;;3.00;;
79570;SDS011;69034;49.444;7.758;2023-06-24T18:02:09;4.13;;;2.70;;
79570;SDS011;69034;49.444;7.758;2023-06-24T18:06:09;4.82;;;2.85;;
79570;SDS011;69034;49.444;7.758;2023-06-24T18:10:10;4.85;;;3.03;;
79570;SDS011;69034;49.444;7.758;2023-06-24T18:14:10;5.25;;;2.65;;
79570;SDS011;69034;49.444;7.758;2023-06-24T18:18:11;5.32;;;2.90;;
79570;SDS011;69034;49.444;7.758;2023-06-24T18:22:13;5.43;;;2.70;;
79570;SDS011;69034;49.444;7.758;2023-06-24T18:26:14;4.75;;;2.63;;
79570;SDS011;69034;49.444;7.758;2023-06-24T18:30:15;4.25;;;2.45;;
79570;SDS011;69034;49.444;7.758;2023-06-24T18:34:16;5.22;;;2.40;;
79570;SDS011;69034;49.444;7.758;2023-06-24T18:38:17;4.82;;;2.75;;
79570;SDS011;69034;49.444;7.758;2023-06-24T18:42:18;5.40;;;3.17;;
79570;SDS011;69034;49.444;7.758;2023-06-24T18:46:19;5.88;;;3.03;;
79570;SDS011;69034;49.444;7.758;2023-06-24T18:50:23;5.13;;;2.67;;
79570;SDS011;69034;49.444;7.758;2023-06-24T18:54:24;8.02;;;2.53;;
79570;SDS011;69034;49.444;7.758;2023-06-24T18:58:26;6.05;;;2.90;;
79570;SDS011;69034;49.444;7.758;2023-06-24T19:02:27;5.15;;;2.88;;
79570;SDS011;69034;49.444;7.758;2023-06-24T19:06:28;5.47;;;2.80;;
79570;SDS011;69034;49.444;7.758;2023-06-24T19:10:28;5.28;;;2.90;;
79570;SDS011;69034;49.444;7.758;2023-06-24T19:14:30;7.60;;;3.28;;
79570;SDS011;69034;49.444;7.758;2023-06-24T19:18:30;5.85;;;2.80;;
79570;SDS011;69034;49.444;7.758;2023-06-24T19:22:31;6.28;;;2.70;;
79570;SDS011;69034;49.444;7.758;2023-06-24T19:26:32;5.05;;;2.72;;
79570;SDS011;69034;49.444;7.758;2023-06-24T19:30:33;5.68;;;2.83;;
79570;SDS011;69034;49.444;7.758;2023-06-24T19:34:34;5.05;;;2.83;;
79570;SDS011;69034;49.444;7.758;2023-06-24T19:38:34;6.28;;;2.75;;
79570;SDS011;69034;49.444;7.758;2023-06-24T19:42:35;5.07;;;2.75;;
79570;SDS011;69034;49.444;7.758;2023-06-24T19:46:37;7.97;;;3.28;;
79570;SDS011;69034;49.444;7.758;2023-06-24T19:50:38;7.13;;;3.60;;
79570;SDS011;69034;49.444;7.758;2023-06-24T19:54:38;6.32;;;2.88;;
79570;SDS011;69034;49.444;7.758;2023-06-24T19:58:42;5.68;;;3.20;;
79570;SDS011;69034;49.444;7.758;2023-06-24T20:02:46;5.68;;;3.22;;
79570;SDS011;69034;49.444;7.758;2023-06-24T20:06:46;8.57;;;3.17;;
79570;SDS011;69034;49.444;7.758;2023-06-24T20:10:48;6.00;;;3.42;;
79570;SDS011;69034;49.444;7.758;2023-06-24T20:14:49;6.07;;;3.25;;
79570;SDS011;69034;49.444;7.758;2023-06-24T20:18:50;6.15;;;3.33;;
79570;SDS011;69034;49.444;7.758;2023-06-24T20:22:53;5.13;;;3.17;;
79570;SDS011;69034;49.444;7.758;2023-06-24T20:26:53;4.95;;;2.88;;
79570;SDS011;69034;49.444;7.758;2023-06-24T20:30:54;5.80;;;2.97;;
79570;SDS011;69034;49.444;7.758;2023-06-24T20:35:02;5.57;;;3.00;;
79570;SDS011;69034;49.444;7.758;2023-06-24T20:39:04;5.00;;;3.13;;
79570;SDS011;69034;49.444;7.758;2023-06-24T20:43:05;7.10;;;3.80;;
79570;SDS011;69034;49.444;7.758;2023-06-24T20:47:07;5.65;;;3.08;;
79570;SDS011;69034;49.444;7.758;2023-06-24T20:51:13;5.10;;;3.45;;
79570;SDS011;69034;49.444;7.758;2023-06-24T20:55:15;4.90;;;3.00;;
79570;SDS011;69034;49.444;7.758;2023-06-24T20:59:17;6.32;;;3.00;;
79570;SDS011;69034;49.444;7.758;2023-06-24T21:03:18;5.93;;;3.38;;
79570;SDS011;69034;49.444;7.758;2023-06-24T21:07:19;5.78;;;3.30;;
79570;SDS011;69034;49.444;7.758;2023-06-24T21:11:20;6.85;;;3.22;;
79570;SDS011;69034;49.444;7.758;2023-06-24T21:15:21;5.45;;;3.20;;
79570;SDS011;69034;49.444;7.758;2023-06-24T21:19:23;8.63;;;3.33;;
79570;SDS011;69034;49.444;7.758;2023-06-24T21:23:29;5.55;;;3.30;;
79570;SDS011;69034;49.444;7.758;2023-06-24T21:27:31;5.88;;;3.38;;
79570;SDS011;69034;49.444;7.758;2023-06-24T21:31:40;6.70;;;3.13;;
79570;SDS011;69034;49.444;7.758;2023-06-24T21:35:41;6.32;;;3.28;;
79570;SDS011;69034;49.444;7.758;2023-06-24T21:39:42;8.05;;;3.15;;
79570;SDS011;69034;49.444;7.758;2023-06-24T21:43:43;5.63;;;3.15;;
79570;SDS011;69034;49.444;7.758;2023-06-24T21:47:46;7.28;;;3.30;;
79570;SDS011;69034;49.444;7.758;2023-06-24T21:51:47;6.68;;;2.70;;
79570;SDS011;69034;49.444;7.758;2023-06-24T21:55:53;4.95;;;2.85;;
79570;SDS011;69034;49.444;7.758;2023-06-24T21:59:54;7.07;;;3.30;;
79570;SDS011;69034;49.444;7.758;2023-06-24T22:03:55;5.68;;;3.00;;
79570;SDS011;69034;49.444;7.758;2023-06-24T22:07:55;6.30;;;3.25;;
79570;SDS011;69034;49.444;7.758;2023-06-24T22:11:57;6.35;;;3.35;;
79570;SDS011;69034;49.444;7.758;2023-06-24T22:15:57;4.72;;;3.22;;
79570;SDS011;69034;49.444;7.758;2023-06-24T22:19:58;5.88;;;3.22;;
79570;SDS011;69034;49.444;7.758;2023-06-24T22:23:59;6.25;;;3.53;;
79570;SDS011;69034;49.444;7.758;2023-06-24T22:28:01;6.95;;;3.58;;
79570;SDS011;69034;49.444;7.758;2023-06-24T22:32:02;6.28;;;3.20;;
79570;SDS011;69034;49.444;7.758;2023-06-24T22:36:03;6.75;;;3.45;;
79570;SDS011;69034;49.444;7.758;2023-06-24T22:40:05;6.03;;;3.20;;
79570;SDS011;69034;49.444;7.758;2023-06-24T22:44:09;7.47;;;3.40;;
79570;SDS011;69034;49.444;7.758;2023-06-24T22:48:10;6.18;;;3.42;;
79570;SDS011;69034;49.444;7.758;2023-06-24T22:52:11;6.47;;;4.22;;
79570;SDS011;69034;49.444;7.758;2023-06-24T22:56:11;5.90;;;3.40;;
79570;SDS011;69034;49.444;7.758;2023-06-24T23:00:13;6.70;;;3.47;;
79570;SDS011;69034;49.444;7.758;2023-06-24T23:04:18;7.25;;;4.07;;
79570;SDS011;69034;49.444;7.758;2023-06-24T23:08:20;7.40;;;3.35;;
79570;SDS011;69034;49.444;7.758;2023-06-24T23:12:24;5.63;;;3.17;;
79570;SDS011;69034;49.444;7.758;2023-06-24T23:16:27;6.85;;;4.07;;
79570;SDS011;69034;49.444;7.758;2023-06-24T23:20:29;6.60;;;3.60;;
79570;SDS011;69034;49.444;7.758;2023-06-24T23:24:30;5.63;;;3.35;;
79570;SDS011;69034;49.444;7.758;2023-06-24T23:28:32;5.18;;;2.88;;
79570;SDS011;69034;49.444;7.758;2023-06-24T23:32:38;6.05;;;3.33;;
79570;SDS011;69034;49.444;7.758;2023-06-24T23:36:41;5.85;;;3.65;;
79570;SDS011;69034;49.444;7.758;2023-06-24T23:40:42;6.13;;;3.47;;
79570;SDS011;69034;49.444;7.758;2023-06-24T23:44:45;7.07;;;3.40;;
79570;SDS011;69034;49.444;7.758;2023-06-24T23:48:46;5.57;;;2.97;;
79570;SDS011;69034;49.444;7.758;2023-06-24T23:52:47;5.53;;;3.28;;
79570;SDS011;69034;49.444;7.758;2023-06-24T23:56:48;8.98;;;3.70;;
